createdAt,value
2022-08-12T00:00:31.362Z,101334.84
2022-08-12T00:03:54.723Z,101334.19
2022-08-12T00:07:18.308Z,101329.31
2022-08-12T00:10:41.550Z,101339.94
2022-08-12T00:14:04.899Z,101333.31
2022-08-12T00:17:27.887Z,101329.44
2022-08-12T00:20:51.110Z,101332.81
2022-08-12T00:24:14.010Z,101341.34
2022-08-12T00:27:43.807Z,101343.72
2022-08-12T00:31:08.297Z,101339.34
2022-08-12T00:34:35.044Z,101344.59
2022-08-12T00:37:58.706Z,101337.47
2022-08-12T00:44:44.248Z,101340.91
2022-08-12T00:47:49.407Z,101349.91
2022-08-12T00:50:55.687Z,101350.06
2022-08-12T00:54:01.288Z,101345.69
2022-08-12T00:57:06.635Z,101348.13
2022-08-12T01:00:28.671Z,101346.22
2022-08-12T01:03:56.702Z,101344.19
2022-08-12T01:07:22.742Z,101346.25
2022-08-12T01:10:45.956Z,101344.31
2022-08-12T01:13:58.061Z,101344.25
2022-08-12T01:17:04.449Z,101343.47
2022-08-12T01:20:10.144Z,101348.75
2022-08-12T01:23:15.836Z,101350.94
2022-08-12T01:26:21.553Z,101347.28
2022-08-12T01:29:28.641Z,101348.44
2022-08-12T01:32:38.888Z,101350.94
2022-08-12T01:35:46.539Z,101346.25
2022-08-12T01:39:12.070Z,101336.91
2022-08-12T01:42:20.703Z,101338.56
2022-08-12T01:45:25.900Z,101335.78
2022-08-12T01:48:32.443Z,101338.38
2022-08-12T01:52:20.517Z,101338.50
2022-08-12T01:55:07.179Z,101339.84
2022-08-12T01:58:13.276Z,101339.31
2022-08-12T02:01:19.335Z,101331.47
2022-08-12T02:04:42.707Z,101339.41
2022-08-12T02:08:06.163Z,101335.72
2022-08-12T02:11:18.587Z,101337.44
2022-08-12T02:14:24.911Z,101341.00
2022-08-12T02:17:54.517Z,101345.00
2022-08-12T02:20:57.190Z,101342.06
2022-08-12T02:24:02.977Z,101333.59
2022-08-12T02:27:09.092Z,101332.25
2022-08-12T02:30:15.031Z,101335.72
2022-08-12T02:33:20.565Z,101344.66
2022-08-12T02:36:25.874Z,101333.84
2022-08-12T02:39:34.071Z,101339.50
2022-08-12T02:42:41.319Z,101342.34
2022-08-12T02:45:48.156Z,101336.09
2022-08-12T02:48:53.964Z,101339.03
2022-08-12T02:51:59.293Z,101342.41
2022-08-12T02:55:04.954Z,101338.50
2022-08-12T02:58:12.449Z,101334.66
2022-08-12T03:01:20.269Z,101344.78
2022-08-12T03:04:27.441Z,101340.53
2022-08-12T03:07:55.907Z,101340.22
2022-08-12T03:10:58.416Z,101336.84
2022-08-12T03:14:07.520Z,101336.47
2022-08-12T03:17:14.375Z,101334.59
2022-08-12T03:20:24.428Z,101337.06
2022-08-12T03:23:32.681Z,101331.66
2022-08-12T03:26:38.329Z,101332.09
2022-08-12T03:29:50.266Z,101324.16
2022-08-12T03:32:57.306Z,101328.66
2022-08-12T03:36:03.070Z,101326.94
2022-08-12T03:39:41.198Z,101319.34
2022-08-12T03:42:52.294Z,101316.00
2022-08-12T03:46:15.692Z,101312.63
2022-08-12T03:49:40.575Z,101320.00
2022-08-12T03:53:03.911Z,101327.16
2022-08-12T03:56:27.162Z,101329.56
2022-08-12T03:59:50.293Z,101333.25
2022-08-12T04:03:01.953Z,101329.72
2022-08-12T04:06:07.604Z,101344.06
2022-08-12T04:09:16.239Z,101343.47
2022-08-12T04:12:39.227Z,101349.72
2022-08-12T04:15:45.593Z,101341.44
2022-08-12T04:18:53.283Z,101346.13
2022-08-12T04:22:01.839Z,101338.47
2022-08-12T04:25:09.504Z,101335.34
2022-08-12T04:28:17.586Z,101340.00
2022-08-12T04:31:26.385Z,101336.28
2022-08-12T04:37:58.953Z,101347.53
2022-08-12T04:41:06.785Z,101345.78
2022-08-12T04:44:12.662Z,101337.03
2022-08-12T04:47:18.458Z,101346.22
2022-08-12T04:50:35.202Z,101339.44
2022-08-12T04:53:42.143Z,101339.44
2022-08-12T04:57:03.655Z,101344.06
2022-08-12T05:00:10.670Z,101344.50
2022-08-12T05:03:15.948Z,101340.25
2022-08-12T05:06:26.788Z,101345.06
2022-08-12T05:09:59.334Z,101348.19
2022-08-12T05:16:27.182Z,101353.72
2022-08-12T05:19:37.280Z,101347.28
2022-08-12T05:22:45.315Z,101352.38
2022-08-12T05:25:51.009Z,101345.38
2022-08-12T05:28:56.743Z,101339.59
2022-08-12T05:32:03.123Z,101337.06
2022-08-12T05:35:08.875Z,101335.31
2022-08-12T05:38:40.205Z,101340.59
2022-08-12T05:41:46.176Z,101334.00
2022-08-12T05:44:52.132Z,101334.31
2022-08-12T05:47:57.958Z,101340.47
2022-08-12T05:51:03.417Z,101338.66
2022-08-12T05:54:12.685Z,101340.44
2022-08-12T05:57:18.897Z,101337.53
2022-08-12T06:00:25.770Z,101338.09
2022-08-12T06:03:31.502Z,101337.78
2022-08-12T06:06:40.170Z,101337.38
2022-08-12T06:09:46.025Z,101334.72
2022-08-12T06:12:51.415Z,101340.53
2022-08-12T06:15:57.172Z,101346.06
2022-08-12T06:19:04.668Z,101349.13
2022-08-12T06:22:12.687Z,101341.63
2022-08-12T06:25:22.142Z,101350.44
2022-08-12T06:28:30.738Z,101345.09
2022-08-12T06:31:36.345Z,101348.69
2022-08-12T06:35:25.390Z,101345.03
2022-08-12T06:38:08.830Z,101355.00
2022-08-12T06:41:31.847Z,101358.19
2022-08-12T06:44:37.289Z,101365.41
2022-08-12T06:47:43.367Z,101355.34
2022-08-12T06:50:49.360Z,101368.59
2022-08-12T06:53:56.025Z,101363.88
2022-08-12T06:58:08.043Z,101355.22
2022-08-12T07:00:32.588Z,101365.47
2022-08-12T07:03:38.559Z,101357.59
2022-08-12T07:06:44.938Z,101366.38
2022-08-12T07:10:06.169Z,101363.69
2022-08-12T07:13:13.573Z,101362.38
2022-08-12T07:16:18.908Z,101363.75
2022-08-12T07:19:25.393Z,101367.03
2022-08-12T07:22:46.366Z,101370.34
2022-08-12T07:25:56.452Z,101363.78
2022-08-12T07:29:05.033Z,101370.38
2022-08-12T07:32:10.654Z,101366.28
2022-08-12T07:35:20.655Z,101364.38
2022-08-12T07:38:29.008Z,101364.38
2022-08-12T07:41:35.181Z,101360.53
2022-08-12T07:44:40.549Z,101361.38
2022-08-12T07:47:46.544Z,101361.69
2022-08-12T07:50:53.006Z,101361.69
2022-08-12T07:54:01.191Z,101352.91
2022-08-12T07:57:12.207Z,101368.50
2022-08-12T08:00:18.626Z,101361.91
2022-08-12T08:03:24.769Z,101363.25
2022-08-12T08:06:35.023Z,101359.97
2022-08-12T08:09:40.674Z,101368.16
2022-08-12T08:12:56.089Z,101360.97
2022-08-12T08:16:03.785Z,101364.81
2022-08-12T08:19:10.194Z,101369.22
2022-08-12T08:22:16.686Z,101362.66
2022-08-12T08:25:35.618Z,101357.41
2022-08-12T08:28:42.404Z,101352.91
2022-08-12T08:31:50.624Z,101356.72
2022-08-12T08:34:56.379Z,101348.44
2022-08-12T08:38:03.442Z,101348.72
2022-08-12T08:42:16.941Z,101354.16
2022-08-12T08:44:57.816Z,101355.00
2022-08-12T08:48:04.492Z,101353.38
2022-08-12T08:51:10.256Z,101359.38
2022-08-12T08:54:16.217Z,101359.16
2022-08-12T08:57:21.868Z,101355.53
2022-08-12T09:00:27.687Z,101363.50
2022-08-12T09:05:08.432Z,101355.53
2022-08-12T09:07:16.565Z,101351.59
2022-08-12T09:17:13.967Z,101350.75
2022-08-12T09:20:29.575Z,101349.59
2022-08-12T09:23:59.705Z,101353.66
2022-08-12T09:27:02.844Z,101347.09
2022-08-12T09:30:16.251Z,101362.09
2022-08-12T09:34:29.235Z,101344.78
2022-08-12T09:37:00.933Z,101354.88
2022-08-12T09:40:58.009Z,101352.84
2022-08-12T09:47:29.394Z,101350.88
2022-08-12T09:50:35.301Z,101345.28
2022-08-12T09:53:40.978Z,101353.50
2022-08-12T09:56:58.852Z,101350.50
2022-08-12T10:00:13.228Z,101356.63
2022-08-12T10:03:32.374Z,101337.28
2022-08-12T10:06:54.834Z,101346.00
2022-08-12T10:10:03.142Z,101340.72
2022-08-12T10:13:34.728Z,101341.69
2022-08-12T10:16:45.713Z,101342.25
2022-08-12T10:19:52.774Z,101337.81
2022-08-12T10:22:59.264Z,101343.06
2022-08-12T10:26:38.115Z,101335.22
2022-08-12T10:30:37.237Z,101336.84
2022-08-12T10:33:18.685Z,101336.38
2022-08-12T10:36:36.400Z,101334.16
2022-08-12T10:40:02.197Z,101328.59
2022-08-12T10:43:29.301Z,101332.69
2022-08-12T10:46:55.454Z,101324.28
2022-08-12T10:50:32.617Z,101318.41
2022-08-12T10:53:44.821Z,101320.53
2022-08-12T10:56:57.718Z,101317.34
2022-08-12T11:00:31.498Z,101314.59
2022-08-12T11:04:23.367Z,101313.78
2022-08-12T11:07:05.238Z,101313.09
2022-08-12T11:10:20.708Z,101307.56
2022-08-12T11:13:46.261Z,101308.03
2022-08-12T11:17:34.949Z,101310.09
2022-08-12T11:20:29.000Z,101302.63
2022-08-12T11:23:38.234Z,101288.34
2022-08-12T11:26:46.213Z,101293.25
2022-08-12T11:30:01.440Z,101288.25
2022-08-12T11:33:24.432Z,101288.97
2022-08-12T11:36:39.503Z,101282.53
2022-08-12T11:43:18.812Z,101296.44
2022-08-12T11:46:25.961Z,101277.66
2022-08-12T11:49:32.767Z,101272.63
2022-08-12T11:52:55.493Z,101280.81
2022-08-12T11:56:02.275Z,101275.91
2022-08-12T12:02:36.543Z,101283.22
2022-08-12T12:05:45.786Z,101285.47
2022-08-12T12:08:53.975Z,101281.75
2022-08-12T12:12:01.014Z,101267.97
2022-08-12T12:15:07.098Z,101263.56
2022-08-12T12:18:15.804Z,101261.59
2022-08-12T12:21:48.681Z,101254.56
2022-08-12T12:24:54.481Z,101261.13
2022-08-12T12:28:05.840Z,101263.88
2022-08-12T12:31:15.041Z,101266.13
2022-08-12T12:35:18.228Z,101268.59
2022-08-12T12:38:30.159Z,101259.16
2022-08-12T12:42:43.350Z,101259.66
2022-08-12T12:45:03.523Z,101258.94
2022-08-12T12:48:25.408Z,101253.00
2022-08-12T12:52:17.185Z,101252.06
2022-08-12T12:54:58.718Z,101249.81
2022-08-12T12:58:05.755Z,101250.03
2022-08-12T13:01:26.946Z,101248.81
2022-08-12T13:04:58.112Z,101247.47
2022-08-12T13:08:04.221Z,101240.06
2022-08-12T13:11:11.784Z,101250.69
2022-08-12T13:14:31.073Z,101245.53
2022-08-12T13:18:02.019Z,101245.53
2022-08-12T13:21:05.718Z,101240.34
2022-08-12T13:24:21.782Z,101233.56
2022-08-12T13:27:35.252Z,101218.81
2022-08-12T13:30:41.478Z,101223.84
2022-08-12T13:34:32.655Z,101218.94
2022-08-12T13:37:24.800Z,101209.47
2022-08-12T13:40:32.034Z,101221.06
2022-08-12T13:43:40.588Z,101215.03
2022-08-12T13:46:58.165Z,101215.25
2022-08-12T13:50:05.116Z,101214.41
2022-08-12T13:53:26.228Z,101215.25
2022-08-12T13:56:37.929Z,101205.69
2022-08-12T13:59:48.368Z,101209.13
2022-08-12T14:03:01.060Z,101205.75
2022-08-12T14:06:06.615Z,101203.31
2022-08-12T14:09:17.527Z,101205.75
2022-08-12T14:12:24.292Z,101203.09
2022-08-12T14:15:37.373Z,101203.94
2022-08-12T14:18:45.572Z,101199.72
2022-08-12T14:22:05.482Z,101204.44
2022-08-12T14:25:11.401Z,101199.72
2022-08-12T14:28:23.999Z,101192.75
2022-08-12T14:31:32.533Z,101197.28
2022-08-12T14:34:37.897Z,101206.25
2022-08-12T14:38:01.174Z,101205.44
2022-08-12T14:41:07.470Z,101196.50
2022-08-12T14:44:58.013Z,101195.38
2022-08-12T14:47:38.497Z,101207.88
2022-08-12T14:51:09.409Z,101202.19
2022-08-12T14:57:57.062Z,101201.28
2022-08-12T15:01:21.541Z,101197.78
2022-08-12T15:04:29.832Z,101203.63
2022-08-12T15:07:49.321Z,101196.91
2022-08-12T15:10:56.754Z,101206.50
2022-08-12T15:14:02.413Z,101212.66
2022-08-12T15:17:11.820Z,101209.09
2022-08-12T15:20:38.245Z,101219.13
2022-08-12T15:23:45.716Z,101207.88
2022-08-12T15:27:00.730Z,101203.81
2022-08-12T15:30:06.909Z,101212.28
2022-08-12T15:33:18.748Z,101205.13
2022-08-12T15:36:54.886Z,101189.69
2022-08-12T15:39:55.270Z,101201.66
2022-08-12T15:43:08.303Z,101196.50
2022-08-12T15:46:16.263Z,101193.03
2022-08-12T15:49:21.760Z,101197.88
2022-08-12T15:52:30.388Z,101190.56
2022-08-12T15:55:36.027Z,101200.41
2022-08-12T15:58:41.588Z,101199.72
2022-08-12T16:01:48.398Z,101194.75
2022-08-12T16:04:55.118Z,101195.63
2022-08-12T16:08:01.029Z,101195.38
2022-08-12T16:11:07.446Z,101196.03
2022-08-12T16:14:21.061Z,101189.00
2022-08-12T16:18:19.649Z,101197.59
2022-08-12T16:20:59.150Z,101198.47
2022-08-12T16:24:07.513Z,101196.88
2022-08-12T16:27:14.145Z,101195.34
2022-08-12T16:30:20.316Z,101189.66
2022-08-12T16:33:59.487Z,101189.50
2022-08-12T16:37:02.285Z,101183.47
2022-08-12T16:40:09.244Z,101180.38
2022-08-12T16:43:24.839Z,101178.50
2022-08-12T16:46:31.912Z,101175.81
2022-08-12T16:49:43.739Z,101177.78
2022-08-12T16:52:49.761Z,101166.81
2022-08-12T16:55:55.874Z,101162.66
2022-08-12T16:59:01.524Z,101162.56
2022-08-12T17:02:09.594Z,101173.72
2022-08-12T17:05:17.557Z,101166.22
2022-08-12T17:08:29.262Z,101173.31
2022-08-12T17:11:55.562Z,101165.06
2022-08-12T17:15:03.094Z,101164.63
2022-08-12T17:18:43.943Z,101167.56
2022-08-12T17:22:01.693Z,101172.78
2022-08-12T17:25:14.566Z,101171.03
2022-08-12T17:28:24.183Z,101169.13
2022-08-12T17:31:59.859Z,101167.19
2022-08-12T17:35:15.476Z,101166.72
2022-08-12T17:38:22.928Z,101172.41
2022-08-12T17:41:55.981Z,101173.22
2022-08-12T17:45:01.554Z,101176.22
2022-08-12T17:48:10.481Z,101159.06
2022-08-12T17:51:20.404Z,101171.34
2022-08-12T17:54:26.362Z,101167.31
2022-08-12T17:57:31.659Z,101165.88
2022-08-12T18:00:42.621Z,101165.06
2022-08-12T18:04:04.940Z,101164.84
2022-08-12T18:07:14.108Z,101164.19
2022-08-12T18:10:43.158Z,101169.06
2022-08-12T18:13:52.249Z,101165.75
2022-08-12T18:17:00.354Z,101172.69
2022-08-12T18:20:08.023Z,101177.84
2022-08-12T18:23:24.406Z,101176.16
2022-08-12T18:26:30.854Z,101177.72
2022-08-12T18:29:41.909Z,101182.94
2022-08-12T18:32:54.250Z,101186.22
2022-08-12T18:36:13.344Z,101182.44
2022-08-12T18:39:22.643Z,101187.28
2022-08-12T18:42:29.546Z,101191.25
2022-08-12T18:45:46.899Z,101189.91
2022-08-12T18:49:16.736Z,101189.91
2022-08-12T18:52:24.606Z,101195.38
2022-08-12T18:55:37.481Z,101195.69
2022-08-12T18:58:59.210Z,101197.31
2022-08-12T19:02:26.255Z,101198.63
2022-08-12T19:05:54.312Z,101197.50
2022-08-12T19:08:57.744Z,101202.06
2022-08-12T19:12:21.700Z,101192.06
2022-08-12T19:15:27.232Z,101197.13
2022-08-12T19:21:59.365Z,101197.34
2022-08-12T19:26:00.919Z,101194.69
2022-08-12T19:28:49.553Z,101208.44
2022-08-12T19:31:59.330Z,101197.81
2022-08-12T19:38:30.718Z,101205.25
2022-08-12T19:41:56.069Z,101200.94
2022-08-12T19:45:06.771Z,101202.59
2022-08-12T19:48:18.120Z,101209.44
2022-08-12T19:51:26.829Z,101208.31
2022-08-12T19:54:43.830Z,101202.53
2022-08-12T19:58:03.375Z,101206.63
2022-08-12T20:01:12.645Z,101210.41
2022-08-12T20:04:22.129Z,101215.00
2022-08-12T20:07:34.571Z,101213.81
2022-08-12T20:10:51.015Z,101220.03
2022-08-12T20:17:23.589Z,101220.16
2022-08-12T20:20:35.809Z,101215.72
2022-08-12T20:23:59.562Z,101219.13
2022-08-12T20:27:06.500Z,101214.38
2022-08-12T20:30:52.352Z,101220.84
2022-08-12T20:33:59.200Z,101228.94
2022-08-12T20:40:29.921Z,101234.75
2022-08-12T20:43:37.596Z,101226.56
2022-08-12T20:46:47.813Z,101224.50
2022-08-12T20:49:55.229Z,101228.75
2022-08-12T20:53:07.765Z,101224.00
2022-08-12T20:56:22.128Z,101225.28
2022-08-12T20:59:38.370Z,101227.13
2022-08-12T21:02:50.034Z,101221.03
2022-08-12T21:06:17.069Z,101223.69
2022-08-12T21:09:25.503Z,101222.47
2022-08-12T21:12:34.058Z,101222.31
2022-08-12T21:15:53.637Z,101224.06
2022-08-12T21:19:01.039Z,101220.94
2022-08-12T21:22:07.154Z,101208.59
2022-08-12T21:25:35.835Z,101218.56
2022-08-12T21:28:58.391Z,101217.34
2022-08-12T21:32:36.876Z,101221.91
2022-08-12T21:35:40.162Z,101223.13
2022-08-12T21:38:47.053Z,101226.75
2022-08-12T21:41:53.016Z,101223.00
2022-08-12T21:45:45.730Z,101223.63
2022-08-12T21:48:25.531Z,101228.41
2022-08-12T21:51:50.316Z,101224.94
2022-08-12T21:54:56.235Z,101230.78
2022-08-12T21:58:02.936Z,101237.41
2022-08-12T22:01:20.001Z,101240.59
2022-08-12T22:04:49.848Z,101235.34
2022-08-12T22:07:58.181Z,101243.38
2022-08-12T22:11:04.257Z,101238.34
2022-08-12T22:14:21.516Z,101236.25
2022-08-12T22:17:50.569Z,101235.41
2022-08-12T22:20:59.745Z,101231.66
2022-08-12T22:24:09.683Z,101234.88
2022-08-12T22:27:52.850Z,101236.03
2022-08-12T22:31:11.536Z,101234.53
2022-08-12T22:34:21.502Z,101232.06
2022-08-12T22:37:35.131Z,101242.19
2022-08-12T22:40:45.884Z,101243.16
2022-08-12T22:44:11.941Z,101240.31
2022-08-12T22:47:54.057Z,101239.94
2022-08-12T22:51:09.575Z,101240.91
2022-08-12T22:54:35.581Z,101240.19
2022-08-12T22:57:53.231Z,101245.50
2022-08-12T23:01:01.958Z,101242.63
2022-08-12T23:04:16.463Z,101251.44
2022-08-12T23:07:36.368Z,101253.22
2022-08-12T23:10:59.286Z,101252.97
2022-08-12T23:14:04.934Z,101248.91
2022-08-12T23:17:35.204Z,101243.94
2022-08-12T23:20:37.156Z,101243.38
2022-08-12T23:24:09.668Z,101248.19
2022-08-12T23:27:44.068Z,101253.25
2022-08-12T23:30:50.925Z,101252.03
2022-08-12T23:33:59.913Z,101264.44
2022-08-12T23:37:07.108Z,101248.84
2022-08-12T23:40:17.686Z,101253.66
2022-08-12T23:43:25.541Z,101260.03
2022-08-12T23:46:31.152Z,101251.75
2022-08-12T23:49:57.542Z,101260.91
2022-08-12T23:53:05.652Z,101255.72
2022-08-12T23:56:12.328Z,101248.44
2022-08-12T23:59:17.890Z,101247.84
